Time;durP1;ratioP1;P1;durP2;ratioP2;P2;SDS_P1;SDS_P2;PMS_P1;PMS_P2;Temp;Humidity;BMP_temperature;BMP_pressure;BME280_temperature;BME280_humidity;BME280_pressure;Samples;Min_cycle;Max_cycle;Signal;HPM_P1;HPM_P2
2022/11/30 00:00:15;;;;;;;299.00;46.75;;;4.70;94.50;;;;;;5092619;28;20392;-91
2022/11/30 00:02:41;;;;;;;137.03;31.07;;;4.50;94.30;;;;;;5090823;28;20401;-90
2022/11/30 00:05:07;;;;;;;198.37;29.30;;;4.50;94.70;;;;;;5092121;28;20396;-91
2022/11/30 00:07:33;;;;;;;252.48;28.13;;;4.40;94.70;;;;;;5107659;28;20476;-90
2022/11/30 00:09:59;;;;;;;155.63;41.20;;;4.30;94.70;;;;;;5108248;28;20793;-91
2022/11/30 00:12:24;;;;;;;70.10;33.97;;;4.20;94.90;;;;;;5091843;28;20400;-90
2022/11/30 00:14:50;;;;;;;151.55;45.45;;;4.40;95.50;;;;;;5090536;28;20916;-90
2022/11/30 00:17:16;;;;;;;518.50;67.20;;;4.20;95.40;;;;;;5091879;28;20496;-90
2022/11/30 00:19:42;;;;;;;52.55;35.88;;;4.10;95.30;;;;;;5089557;28;20403;-92
2022/11/30 00:22:08;;;;;;;83.75;43.75;;;4.10;95.60;;;;;;5091683;28;20412;-90
2022/11/30 00:24:33;;;;;;;105.80;50.22;;;4.20;95.80;;;;;;5090777;28;20728;-90
2022/11/30 00:26:59;;;;;;;99.60;44.97;;;4.20;96.30;;;;;;5091151;28;20416;-91
2022/11/30 00:29:24;;;;;;;115.17;48.37;;;4.30;96.40;;;;;;5091074;28;20449;-89
2022/11/30 00:31:50;;;;;;;347.35;66.30;;;4.40;96.50;;;;;;5090163;28;20400;-89
2022/11/30 00:34:16;;;;;;;112.78;47.40;;;4.40;96.50;;;;;;5108697;28;20409;-90
2022/11/30 00:36:41;;;;;;;135.50;51.93;;;4.50;96.70;;;;;;5089316;28;20424;-92
2022/11/30 00:39:07;;;;;;;139.18;55.90;;;4.60;96.70;;;;;;5091773;28;20582;-91
2022/11/30 00:41:33;;;;;;;135.10;53.53;;;4.60;96.80;;;;;;5089792;28;20913;-91
2022/11/30 00:43:58;;;;;;;162.47;55.30;;;4.70;96.80;;;;;;5091412;28;20407;-90
2022/11/30 00:46:24;;;;;;;181.03;59.13;;;4.80;96.60;;;;;;5088959;28;20428;-91
2022/11/30 00:48:50;;;;;;;184.90;61.28;;;4.90;96.50;;;;;;5090506;28;20408;-92
2022/11/30 00:51:17;;;;;;;137.73;57.53;;;4.90;96.50;;;;;;5090948;28;20485;-90
2022/11/30 00:53:43;;;;;;;85.63;45.17;;;5.00;96.80;;;;;;5089715;28;20411;-91
2022/11/30 00:56:09;;;;;;;107.47;48.25;;;5.10;96.80;;;;;;5091127;28;20396;-91
2022/11/30 00:58:35;;;;;;;117.45;50.08;;;5.10;96.40;;;;;;5089502;28;20441;-89
2022/11/30 01:01:02;;;;;;;132.50;53.10;;;5.20;96.40;;;;;;5091107;28;20819;-90
2022/11/30 01:03:28;;;;;;;117.60;49.50;;;5.20;96.40;;;;;;5089839;28;20887;-91
2022/11/30 01:05:53;;;;;;;123.93;52.27;;;5.40;96.30;;;;;;5090501;28;20404;-90
2022/11/30 01:08:19;;;;;;;102.03;47.87;;;5.30;96.50;;;;;;5090069;28;20457;-90
2022/11/30 01:10:46;;;;;;;111.65;50.17;;;5.40;96.50;;;;;;5089340;28;20947;-90
2022/11/30 01:13:12;;;;;;;112.32;50.03;;;5.40;96.40;;;;;;5090790;28;20487;-90
2022/11/30 01:15:41;;;;;;;130.73;53.90;;;5.50;96.50;;;;;;5088971;28;20401;-91
2022/11/30 01:18:06;;;;;;;118.03;51.55;;;5.50;96.50;;;;;;5091012;28;21116;-90
2022/11/30 01:20:32;;;;;;;127.93;50.17;;;5.60;96.50;;;;;;5088937;28;20498;-90
2022/11/30 01:22:58;;;;;;;148.93;51.00;;;5.60;96.20;;;;;;5090427;28;20407;-91
2022/11/30 01:25:23;;;;;;;150.70;57.00;;;5.70;96.10;;;;;;5089806;28;20404;-90
2022/11/30 01:27:50;;;;;;;112.78;49.03;;;5.70;95.90;;;;;;5089557;28;20873;-92
2022/11/30 01:30:16;;;;;;;177.85;59.85;;;5.80;96.10;;;;;;5090072;28;20432;-91
2022/11/30 01:32:42;;;;;;;214.60;58.80;;;5.80;96.20;;;;;;5105488;28;20420;-89
2022/11/30 01:35:07;;;;;;;117.63;49.72;;;5.80;96.00;;;;;;5090468;28;20404;-90
2022/11/30 01:37:34;;;;;;;115.18;50.13;;;5.80;96.10;;;;;;5088184;28;20424;-91
2022/11/30 01:39:59;;;;;;;115.05;49.20;;;5.90;96.00;;;;;;5090517;28;20442;-92
2022/11/30 01:42:25;;;;;;;213.07;59.78;;;5.90;96.10;;;;;;5105752;28;20926;-91
2022/11/30 01:44:56;;;;;;;137.52;48.33;;;6.00;95.90;;;;;;5090153;28;20389;-91
2022/11/30 01:47:33;;;;;;;128.15;48.20;;;6.10;95.70;;;;;;5089640;28;20407;-91
2022/11/30 01:50:08;;;;;;;125.80;49.00;;;5.90;95.50;;;;;;5088521;28;20530;-89
2022/11/30 01:52:45;;;;;;;271.75;63.22;;;6.00;95.50;;;;;;5090073;28;20412;-90
2022/11/30 01:55:17;;;;;;;122.85;47.22;;;5.90;95.70;;;;;;5105216;28;20415;-90
2022/11/30 01:58:02;;;;;;;115.90;47.13;;;6.00;95.70;;;;;;5089572;28;20431;-92
2022/11/30 02:00:28;;;;;;;127.90;49.53;;;6.00;95.70;;;;;;5089516;28;20404;-91
2022/11/30 02:03:06;;;;;;;102.47;45.90;;;6.00;95.80;;;;;;5088805;28;20903;-90
2022/11/30 02:05:34;;;;;;;100.03;43.17;;;6.00;95.60;;;;;;5090043;28;20423;-90
2022/11/30 02:08:00;;;;;;;141.05;51.15;;;6.10;95.50;;;;;;5087543;28;20465;-90
2022/11/30 02:10:30;;;;;;;151.80;51.00;;;6.10;95.50;;;;;;5089877;28;20891;-90
2022/11/30 02:13:12;;;;;;;111.78;45.72;;;6.10;95.40;;;;;;5106075;28;20845;-90
2022/11/30 02:16:09;;;;;;;144.98;49.70;;;6.00;95.40;;;;;;5086664;28;20419;-89
2022/11/30 02:18:38;;;;;;;107.67;43.50;;;6.00;95.30;;;;;;5068750;28;20412;-90
2022/11/30 02:21:10;;;;;;;108.20;43.15;;;6.40;95.40;;;;;;5104858;28;20404;-91
2022/11/30 02:23:54;;;;;;;104.43;43.67;;;5.80;95.10;;;;;;5089806;28;20405;-90
2022/11/30 02:26:47;;;;;;;165.98;51.33;;;5.80;95.10;;;;;;5088761;28;20416;-90
2022/11/30 02:29:23;;;;;;;83.05;39.28;;;5.70;95.10;;;;;;5084812;28;20483;-91
2022/11/30 02:32:13;;;;;;;139.13;45.58;;;5.60;95.10;;;;;;5089285;28;20405;-91
2022/11/30 02:34:42;;;;;;;96.53;42.58;;;5.60;95.00;;;;;;5105921;28;20451;-90
2022/11/30 02:37:10;;;;;;;92.63;39.13;;;5.50;95.10;;;;;;5105170;28;20452;-91
2022/11/30 02:39:36;;;;;;;173.95;47.30;;;5.40;95.10;;;;;;5089056;28;20996;-90
2022/11/30 02:42:01;;;;;;;384.27;52.97;;;5.40;95.00;;;;;;5087509;28;20397;-89
2022/11/30 02:44:27;;;;;;;609.97;60.25;;;5.30;95.10;;;;;;5106782;28;20510;-90
2022/11/30 02:47:15;;;;;;;196.70;42.60;;;5.30;95.00;;;;;;5104448;28;20415;-90
2022/11/30 02:50:02;;;;;;;465.73;52.10;;;5.10;95.20;;;;;;5089068;28;20487;-90
2022/11/30 02:52:30;;;;;;;317.55;42.88;;;5.00;95.20;;;;;;5089119;28;20435;-90
2022/11/30 02:55:05;;;;;;;210.20;34.08;;;5.00;95.10;;;;;;5087729;28;20461;-92
2022/11/30 02:57:32;;;;;;;150.35;30.52;;;4.90;94.60;;;;;;5085310;28;20420;-91
2022/11/30 02:59:59;;;;;;;737.95;60.78;;;4.80;94.80;;;;;;5087689;28;20457;-90
2022/11/30 03:02:24;;;;;;;137.50;38.80;;;4.70;94.60;;;;;;5089040;28;20397;-90
2022/11/30 03:04:50;;;;;;;199.73;37.93;;;4.60;95.10;;;;;;5087989;28;20841;-91
2022/11/30 03:07:16;;;;;;;416.33;54.30;;;4.60;95.20;;;;;;5088967;28;20792;-89
2022/11/30 03:09:41;;;;;;;349.35;38.95;;;4.70;95.40;;;;;;5107201;28;20499;-90
2022/11/30 03:12:07;;;;;;;542.27;50.07;;;4.50;95.20;;;;;;5091315;28;20479;-91
2022/11/30 03:14:33;;;;;;;593.50;55.13;;;4.40;95.00;;;;;;5093407;28;20818;-90
2022/11/30 03:16:58;;;;;;;491.50;47.53;;;4.40;95.20;;;;;;5091040;28;20468;-90
2022/11/30 03:19:24;;;;;;;446.52;48.42;;;4.30;95.10;;;;;;5092941;28;20488;-90
2022/11/30 03:21:50;;;;;;;364.53;43.57;;;4.20;95.10;;;;;;5091702;28;20422;-88
2022/11/30 03:24:15;;;;;;;284.85;35.25;;;4.10;95.10;;;;;;5093006;28;20870;-89
2022/11/30 03:26:41;;;;;;;419.33;44.08;;;4.10;95.20;;;;;;5109667;28;20444;-90
2022/11/30 03:29:06;;;;;;;503.13;48.63;;;4.00;95.10;;;;;;5091902;28;20411;-91
2022/11/30 03:31:32;;;;;;;146.35;36.30;;;3.90;95.00;;;;;;5092657;28;20489;-91
2022/11/30 03:33:58;;;;;;;135.40;35.45;;;3.90;95.40;;;;;;5108455;28;20453;-91
2022/11/30 03:36:23;;;;;;;154.77;31.97;;;3.80;95.80;;;;;;5092969;28;20519;-92
2022/11/30 03:38:49;;;;;;;128.10;35.37;;;3.80;95.90;;;;;;5090896;28;20448;-92
2022/11/30 03:41:16;;;;;;;187.43;34.17;;;3.80;95.70;;;;;;5092772;28;20475;-90
2022/11/30 03:43:43;;;;;;;150.45;19.90;;;3.70;95.60;;;;;;5091209;28;20392;-90
2022/11/30 03:46:09;;;;;;;232.63;34.53;;;3.60;94.80;;;;;;5092136;28;20457;-90
2022/11/30 03:48:35;;;;;;;286.13;31.42;;;3.50;94.90;;;;;;5091885;28;20409;-90
2022/11/30 03:51:01;;;;;;;78.28;23.10;;;3.40;95.10;;;;;;5091116;28;20404;-91
2022/11/30 03:53:27;;;;;;;87.60;21.90;;;3.30;95.00;;;;;;5092352;28;20400;-90
2022/11/30 03:55:55;;;;;;;77.00;25.10;;;3.30;95.10;;;;;;5107243;28;20459;-90
2022/11/30 03:58:22;;;;;;;144.80;33.60;;;3.10;95.20;;;;;;5092516;28;20435;-90
2022/11/30 04:00:48;;;;;;;100.55;28.05;;;3.20;95.90;;;;;;5090736;28;20441;-89
2022/11/30 04:03:13;;;;;;;120.25;28.10;;;3.20;96.10;;;;;;5092277;28;20404;-91
2022/11/30 04:05:39;;;;;;;86.00;26.40;;;3.20;96.20;;;;;;5091087;28;20400;-89
2022/11/30 04:08:04;;;;;;;67.93;26.07;;;3.30;96.20;;;;;;5091460;28;20419;-90
2022/11/30 04:10:30;;;;;;;149.00;29.83;;;3.20;95.70;;;;;;5090605;28;20408;-91
2022/11/30 04:12:56;;;;;;;99.20;30.95;;;3.30;95.80;;;;;;5088848;28;20403;-89
2022/11/30 04:15:22;;;;;;;242.30;38.08;;;3.30;95.60;;;;;;5091552;28;20874;-91
2022/11/30 04:17:48;;;;;;;144.27;33.93;;;3.20;95.60;;;;;;5088693;28;20934;-89
2022/11/30 04:20:13;;;;;;;89.80;23.30;;;3.20;96.10;;;;;;5091650;28;20396;-90
2022/11/30 04:22:39;;;;;;;220.57;39.60;;;3.20;95.90;;;;;;5090411;28;20401;-91
2022/11/30 04:25:05;;;;;;;223.60;38.70;;;3.10;95.90;;;;;;5091389;28;20484;-91
2022/11/30 04:27:31;;;;;;;113.05;32.55;;;3.10;95.70;;;;;;5090817;28;20404;-89
2022/11/30 04:29:56;;;;;;;150.05;37.35;;;3.30;96.00;;;;;;5107054;28;20412;-91
2022/11/30 04:32:22;;;;;;;93.72;26.92;;;3.10;95.70;;;;;;5091207;28;20419;-91
2022/11/30 04:34:48;;;;;;;83.33;29.43;;;3.10;95.90;;;;;;5089271;28;20827;-90
2022/11/30 04:37:14;;;;;;;69.77;28.70;;;3.20;95.80;;;;;;5091594;28;20493;-90
2022/11/30 04:39:39;;;;;;;53.83;22.97;;;3.10;96.10;;;;;;5089631;28;20910;-90
2022/11/30 04:42:05;;;;;;;86.85;30.45;;;3.10;96.00;;;;;;5090983;28;20871;-90
2022/11/30 04:44:30;;;;;;;88.60;29.95;;;3.00;95.80;;;;;;5090208;28;20405;-89
2022/11/30 04:46:56;;;;;;;62.97;24.73;;;3.00;95.80;;;;;;5090517;28;20408;-91
2022/11/30 04:49:21;;;;;;;56.35;25.98;;;3.00;95.80;;;;;;5090919;28;20987;-89
2022/11/30 04:51:47;;;;;;;87.00;33.40;;;3.00;96.10;;;;;;5106632;28;20419;-91
2022/11/30 04:54:13;;;;;;;102.03;36.70;;;3.10;96.40;;;;;;5091332;28;20826;-90
2022/11/30 04:56:38;;;;;;;121.85;39.50;;;3.20;96.20;;;;;;5089397;28;20471;-92
2022/11/30 04:59:04;;;;;;;186.15;39.85;;;3.20;96.50;;;;;;5091268;28;20400;-90
2022/11/30 05:01:30;;;;;;;44.73;26.90;;;3.20;96.40;;;;;;5106637;28;20480;-89
2022/11/30 05:03:58;;;;;;;113.00;41.50;;;3.40;96.50;;;;;;5108032;28;20400;-89
2022/11/30 05:06:25;;;;;;;55.47;31.95;;;3.40;96.60;;;;;;5090145;28;20412;-91
2022/11/30 05:08:50;;;;;;;35.25;24.90;;;3.30;96.50;;;;;;5089884;28;20408;-91
2022/11/30 05:11:16;;;;;;;47.13;27.83;;;3.60;96.50;;;;;;5090201;28;20414;-90
2022/11/30 05:13:42;;;;;;;56.20;29.90;;;3.50;96.40;;;;;;5084711;28;20478;-91
2022/11/30 05:16:09;;;;;;;94.47;38.83;;;3.60;96.40;;;;;;5087142;28;20948;-89
2022/11/30 05:18:35;;;;;;;94.82;37.60;;;3.60;96.30;;;;;;5052182;28;20406;-90
2022/11/30 05:21:01;;;;;;;103.47;39.53;;;3.60;96.30;;;;;;5070228;28;20417;-89
2022/11/30 05:23:26;;;;;;;50.08;29.70;;;3.70;96.50;;;;;;5085674;28;20417;-89
2022/11/30 05:25:52;;;;;;;59.07;31.23;;;3.70;96.40;;;;;;5069394;28;20463;-90
2022/11/30 05:28:17;;;;;;;91.03;37.45;;;3.70;96.10;;;;;;5069404;28;20402;-91
2022/11/30 05:30:43;;;;;;;56.35;28.40;;;3.80;96.20;;;;;;5085411;28;20413;-90
2022/11/30 05:33:09;;;;;;;95.40;36.17;;;3.70;95.80;;;;;;5069648;28;20509;-90
2022/11/30 05:35:35;;;;;;;87.40;36.63;;;3.70;95.80;;;;;;5068454;28;20510;-91
2022/11/30 05:38:01;;;;;;;76.20;32.72;;;3.70;96.10;;;;;;5069962;28;21284;-90
2022/11/30 05:40:27;;;;;;;59.90;28.47;;;3.70;95.70;;;;;;5068878;28;20390;-90
2022/11/30 05:42:57;;;;;;;86.50;35.30;;;3.70;95.60;;;;;;5086827;28;20398;-91
2022/11/30 05:45:23;;;;;;;56.85;29.88;;;3.70;95.70;;;;;;5068952;28;20896;-90
2022/11/30 05:47:49;;;;;;;67.78;33.28;;;3.70;95.90;;;;;;5068857;28;20633;-90
2022/11/30 05:50:15;;;;;;;97.05;38.85;;;3.80;96.20;;;;;;5069699;28;20756;-90
2022/11/30 05:52:40;;;;;;;85.20;36.42;;;3.80;96.20;;;;;;5084055;28;20459;-90
2022/11/30 05:55:06;;;;;;;79.10;33.33;;;3.80;96.10;;;;;;5069405;28;20410;-90
2022/11/30 05:57:37;;;;;;;63.03;33.20;;;3.90;96.00;;;;;;5067485;28;20784;-90
2022/11/30 06:00:05;;;;;;;67.53;33.70;;;4.00;96.10;;;;;;5086647;28;20693;-90
2022/11/30 06:02:30;;;;;;;101.82;42.28;;;4.00;96.20;;;;;;5068824;28;20429;-91
2022/11/30 06:04:56;;;;;;;95.30;36.97;;;4.10;96.40;;;;;;5068599;28;20453;-91
2022/11/30 06:07:22;;;;;;;80.77;37.23;;;4.10;96.20;;;;;;5069630;28;20398;-90
2022/11/30 06:09:47;;;;;;;66.63;36.67;;;4.10;96.10;;;;;;5068081;28;20472;-89
2022/11/30 06:12:13;;;;;;;91.70;40.08;;;4.20;96.20;;;;;;5069258;28;20413;-91
2022/11/30 06:14:38;;;;;;;73.20;37.20;;;4.20;96.30;;;;;;5067495;28;20394;-91
2022/11/30 06:17:04;;;;;;;71.05;37.00;;;4.30;96.30;;;;;;5069548;28;20422;-89
2022/11/30 06:19:30;;;;;;;83.05;37.47;;;4.30;96.30;;;;;;5068275;28;20418;-90
2022/11/30 06:21:55;;;;;;;104.43;45.43;;;4.40;96.20;;;;;;5069216;28;20402;-90
2022/11/30 06:24:21;;;;;;;86.22;39.35;;;4.40;96.10;;;;;;5074973;28;20419;-90
2022/11/30 06:26:46;;;;;;;127.65;48.33;;;4.50;96.10;;;;;;5087559;28;20419;-91
2022/11/30 06:29:12;;;;;;;68.30;37.87;;;4.50;96.30;;;;;;5073823;28;20409;-91
2022/11/30 06:31:38;;;;;;;56.92;34.17;;;4.50;96.40;;;;;;5080641;28;20402;-92
2022/11/30 06:34:03;;;;;;;98.07;40.25;;;4.60;96.40;;;;;;5086691;28;20410;-91
2022/11/30 06:36:30;;;;;;;104.13;41.70;;;4.60;96.20;;;;;;5070168;28;20941;-91
2022/11/30 06:38:56;;;;;;;91.07;39.03;;;4.70;96.10;;;;;;5072835;28;20402;-89
2022/11/30 06:41:22;;;;;;;66.00;34.97;;;4.70;96.10;;;;;;5077406;28;20406;-89
2022/11/30 06:43:48;;;;;;;73.45;34.33;;;4.80;96.10;;;;;;5076937;28;20480;-91
2022/11/30 06:46:13;;;;;;;77.72;35.40;;;4.80;96.20;;;;;;5073099;28;20409;-90
2022/11/30 06:48:39;;;;;;;78.35;37.13;;;4.80;96.10;;;;;;5088601;28;20421;-90
2022/11/30 06:51:07;;;;;;;78.40;38.83;;;4.90;96.20;;;;;;5090607;28;20458;-91
2022/11/30 06:53:32;;;;;;;107.10;43.03;;;4.90;96.20;;;;;;5088341;28;20956;-91
2022/11/30 06:55:58;;;;;;;138.00;48.17;;;5.00;96.10;;;;;;5073151;28;20500;-90
2022/11/30 06:58:24;;;;;;;89.57;42.77;;;5.10;96.00;;;;;;5071540;28;20421;-91
2022/11/30 07:00:49;;;;;;;148.47;51.87;;;5.10;96.10;;;;;;5072975;28;20495;-91
2022/11/30 07:03:15;;;;;;;83.18;41.33;;;5.10;96.20;;;;;;5072264;28;20402;-93
2022/11/30 07:05:43;;;;;;;111.63;44.30;;;5.20;96.30;;;;;;5072178;28;20406;-90
2022/11/30 07:08:10;;;;;;;87.43;41.70;;;5.20;96.10;;;;;;5073056;28;20409;-91
2022/11/30 07:10:40;;;;;;;83.00;41.35;;;5.30;96.20;;;;;;5071289;28;20804;-91
2022/11/30 07:13:10;;;;;;;137.35;50.90;;;5.50;96.20;;;;;;5073049;28;20440;-90
2022/11/30 07:15:35;;;;;;;111.47;46.20;;;5.30;96.00;;;;;;5071345;28;20823;-89
2022/11/30 07:18:01;;;;;;;125.43;47.83;;;5.40;96.00;;;;;;5072548;28;20450;-90
2022/11/30 07:20:26;;;;;;;127.07;47.03;;;5.50;95.90;;;;;;5088689;28;20792;-90
2022/11/30 07:22:55;;;;;;;107.47;47.23;;;5.50;95.90;;;;;;5088398;28;20406;-91
2022/11/30 07:28:07;;;;;;;103.05;44.60;;;5.50;96.00;;;;;;5087755;28;20398;-91
2022/11/30 07:30:33;;;;;;;170.75;54.05;;;5.50;95.80;;;;;;5072751;28;20466;-92
2022/11/30 07:32:59;;;;;;;120.63;47.00;;;5.50;95.70;;;;;;5087315;28;20609;-91
2022/11/30 07:35:24;;;;;;;183.93;57.55;;;5.50;95.80;;;;;;5089326;28;20410;-90
2022/11/30 07:37:50;;;;;;;145.97;54.43;;;5.60;96.00;;;;;;5071462;28;20453;-90
2022/11/30 07:40:16;;;;;;;177.30;60.40;;;5.60;96.00;;;;;;5071313;28;20402;-90
2022/11/30 07:42:41;;;;;;;168.10;59.30;;;5.80;96.00;;;;;;5071473;28;20477;-90
2022/11/30 07:45:07;;;;;;;132.63;50.70;;;5.70;96.00;;;;;;5070533;28;20473;-90
2022/11/30 07:47:33;;;;;;;128.02;50.28;;;5.70;95.90;;;;;;5072865;28;20691;-91
2022/11/30 07:49:59;;;;;;;211.73;60.90;;;6.00;96.00;;;;;;5070482;28;20445;-91
2022/11/30 07:52:24;;;;;;;217.07;60.80;;;5.80;95.80;;;;;;5072772;28;20402;-89
2022/11/30 07:54:50;;;;;;;167.80;56.85;;;5.80;95.70;;;;;;5069843;28;20398;-90
2022/11/30 07:57:16;;;;;;;192.20;59.93;;;5.80;95.50;;;;;;5071529;28;20476;-91
2022/11/30 07:59:41;;;;;;;167.00;58.95;;;5.80;95.60;;;;;;5088279;28;20442;-90
2022/11/30 08:02:09;;;;;;;181.38;57.70;;;5.80;95.60;;;;;;5070593;28;20909;-90
2022/11/30 08:04:35;;;;;;;183.45;58.13;;;5.70;95.20;;;;;;5088709;28;20413;-90
2022/11/30 08:07:01;;;;;;;235.27;63.97;;;5.70;95.40;;;;;;5086787;28;20394;-91
2022/11/30 08:09:26;;;;;;;136.23;52.87;;;5.70;95.50;;;;;;5071750;28;20402;-90
2022/11/30 08:11:52;;;;;;;154.27;55.42;;;5.70;95.50;;;;;;5070055;28;20413;-90
2022/11/30 08:14:17;;;;;;;146.43;54.33;;;5.80;95.60;;;;;;5071105;28;20950;-91
2022/11/30 08:16:43;;;;;;;136.23;53.93;;;5.80;95.60;;;;;;5071091;28;20425;-90
2022/11/30 08:19:09;;;;;;;142.40;51.70;;;5.70;95.40;;;;;;5070825;28;21029;-91
2022/11/30 08:21:36;;;;;;;208.23;57.72;;;5.70;95.20;;;;;;5071126;28;20861;-90
2022/11/30 08:24:02;;;;;;;195.52;59.50;;;5.70;95.20;;;;;;5085668;28;20410;-90
2022/11/30 08:26:31;;;;;;;144.32;53.13;;;5.70;95.40;;;;;;5070865;28;20447;-91
2022/11/30 08:28:58;;;;;;;159.85;58.63;;;5.70;95.50;;;;;;5068120;28;20441;-90
2022/11/30 08:31:30;;;;;;;195.00;61.65;;;5.70;95.80;;;;;;5070886;28;20445;-91
2022/11/30 08:33:58;;;;;;;161.10;57.22;;;5.80;95.90;;;;;;5068922;28;20492;-90
2022/11/30 08:36:25;;;;;;;180.43;61.67;;;5.90;95.80;;;;;;5069261;28;20462;-90
2022/11/30 08:38:51;;;;;;;168.07;62.20;;;6.10;95.90;;;;;;5070163;28;20409;-92
2022/11/30 08:41:20;;;;;;;154.40;58.97;;;6.10;96.00;;;;;;5086620;28;20421;-90
2022/11/30 08:43:48;;;;;;;150.37;57.27;;;6.20;96.10;;;;;;5071071;28;20406;-90
2022/11/30 08:46:16;;;;;;;159.43;59.22;;;6.20;96.00;;;;;;5069167;28;20403;-92
2022/11/30 08:48:42;;;;;;;190.07;61.63;;;6.20;95.80;;;;;;5087436;28;20505;-89
2022/11/30 08:51:10;;;;;;;158.37;58.03;;;6.30;95.70;;;;;;5086399;28;20466;-91
2022/11/30 08:53:36;;;;;;;183.13;60.85;;;6.30;95.60;;;;;;5070592;28;20413;-90
2022/11/30 08:56:09;;;;;;;176.75;61.28;;;6.30;95.70;;;;;;5070303;28;20403;-90
2022/11/30 08:58:36;;;;;;;177.17;62.33;;;6.40;95.70;;;;;;5086085;28;20471;-91
2022/11/30 09:01:10;;;;;;;177.43;58.97;;;6.40;95.90;;;;;;5071083;28;20402;-92
2022/11/30 09:03:36;;;;;;;133.05;55.45;;;6.50;95.80;;;;;;5085397;28;20413;-91
2022/11/30 09:06:07;;;;;;;133.77;54.83;;;6.60;95.80;;;;;;5070610;28;20459;-91
2022/11/30 09:08:33;;;;;;;139.90;55.70;;;6.60;95.70;;;;;;5069124;28;20417;-91
2022/11/30 09:11:06;;;;;;;154.75;57.00;;;6.60;95.50;;;;;;5069669;28;20904;-91
2022/11/30 09:13:32;;;;;;;146.38;55.40;;;6.60;95.50;;;;;;5087256;28;20406;-91
2022/11/30 09:15:57;;;;;;;127.38;53.83;;;6.70;95.50;;;;;;5068776;28;20463;-92
2022/11/30 09:18:23;;;;;;;143.17;54.60;;;6.70;95.50;;;;;;5070503;28;20473;-90
2022/11/30 09:20:49;;;;;;;121.47;50.53;;;6.70;95.20;;;;;;5068441;28;20496;-90
2022/11/30 09:23:15;;;;;;;123.93;52.15;;;6.80;95.20;;;;;;5070235;28;20406;-91
2022/11/30 09:25:40;;;;;;;100.50;47.53;;;6.80;95.10;;;;;;5069238;28;20501;-91
2022/11/30 09:28:06;;;;;;;158.53;54.73;;;6.90;95.20;;;;;;5069956;28;20430;-93
2022/11/30 09:30:31;;;;;;;107.82;50.30;;;6.90;95.10;;;;;;5069243;28;20462;-92
2022/11/30 09:32:59;;;;;;;180.32;57.17;;;6.90;95.00;;;;;;5085781;28;20445;-92
2022/11/30 09:35:25;;;;;;;123.97;51.20;;;7.00;94.90;;;;;;5070805;28;20524;-91
2022/11/30 09:37:52;;;;;;;122.22;50.90;;;7.00;94.90;;;;;;5068704;28;20462;-91
2022/11/30 09:40:21;;;;;;;117.10;50.38;;;7.00;94.90;;;;;;5087365;28;20415;-91
2022/11/30 09:43:02;;;;;;;115.05;50.38;;;7.10;94.90;;;;;;5068757;28;20414;-92
2022/11/30 09:45:30;;;;;;;96.75;46.20;;;7.10;94.80;;;;;;5086162;28;20498;-90
2022/11/30 09:48:13;;;;;;;97.75;45.60;;;7.20;94.90;;;;;;5086793;28;20401;-89
2022/11/30 09:50:42;;;;;;;102.05;47.78;;;7.20;94.70;;;;;;5068387;28;20455;-89
2022/11/30 09:53:34;;;;;;;77.75;41.33;;;7.30;94.80;;;;;;5070370;28;20967;-92
2022/11/30 09:56:01;;;;;;;74.35;40.65;;;7.30;94.50;;;;;;5067811;28;20409;-92
2022/11/30 09:58:43;;;;;;;85.10;43.88;;;7.30;94.30;;;;;;5069395;28;20437;-91
2022/11/30 10:01:16;;;;;;;83.53;43.75;;;7.40;94.40;;;;;;5101621;28;20766;-91
2022/11/30 10:03:42;;;;;;;80.43;43.08;;;7.40;94.20;;;;;;5068102;28;20417;-92
2022/11/30 10:06:14;;;;;;;84.70;42.93;;;7.30;94.60;;;;;;5069922;28;20390;-91
2022/11/30 10:08:59;;;;;;;110.63;49.07;;;7.30;94.30;;;;;;5068055;28;20499;-92
2022/11/30 10:11:49;;;;;;;87.07;44.45;;;7.20;94.50;;;;;;5068607;28;20416;-91
2022/11/30 10:14:36;;;;;;;67.05;38.33;;;7.30;94.20;;;;;;5070038;28;20718;-91
2022/11/30 10:17:28;;;;;;;91.05;45.17;;;7.40;94.00;;;;;;5084400;28;20434;-92
2022/11/30 10:20:15;;;;;;;103.57;48.35;;;7.40;94.50;;;;;;5068899;28;20908;-91
2022/11/30 10:23:01;;;;;;;102.55;48.20;;;7.40;94.60;;;;;;5069532;28;20414;-90
2022/11/30 10:25:56;;;;;;;77.03;41.97;;;7.50;94.70;;;;;;5067002;28;20471;-91
2022/11/30 10:28:41;;;;;;;79.60;43.67;;;7.50;94.40;;;;;;5069588;28;20485;-93
2022/11/30 10:31:11;;;;;;;105.50;49.08;;;7.60;94.30;;;;;;5080926;28;21012;-93
2022/11/30 10:33:50;;;;;;;82.57;42.90;;;7.70;94.30;;;;;;5067207;28;20406;-91
2022/11/30 10:36:39;;;;;;;94.45;46.25;;;7.70;94.10;;;;;;5068665;28;20390;-91
2022/11/30 10:39:25;;;;;;;67.63;39.05;;;7.80;94.00;;;;;;5066637;28;20417;-91
2022/11/30 10:42:11;;;;;;;82.75;43.95;;;7.80;93.80;;;;;;5068147;28;20406;-92
2022/11/30 10:44:43;;;;;;;82.63;44.35;;;7.80;93.90;;;;;;5068972;28;20429;-91
2022/11/30 10:47:18;;;;;;;81.80;43.35;;;7.70;93.60;;;;;;5066389;28;20414;-93
2022/11/30 10:49:50;;;;;;;99.07;45.88;;;7.90;93.80;;;;;;5068822;28;20405;-92
2022/11/30 10:52:27;;;;;;;79.18;43.35;;;7.90;93.80;;;;;;5066374;28;20410;-92
2022/11/30 10:54:54;;;;;;;87.43;49.00;;;7.90;93.70;;;;;;5084733;28;20487;-92
2022/11/30 10:57:23;;;;;;;96.60;49.40;;;8.20;93.50;;;;;;5085295;28;20483;-93
2022/11/30 10:59:53;;;;;;;80.00;44.83;;;8.00;93.50;;;;;;5084989;28;20873;-92
2022/11/30 11:02:40;;;;;;;73.60;43.28;;;8.10;93.60;;;;;;5068704;28;20406;-90
2022/11/30 11:05:19;;;;;;;72.82;42.35;;;8.10;93.40;;;;;;5067126;28;20851;-92
2022/11/30 11:08:23;;;;;;;89.72;47.22;;;8.10;93.20;;;;;;5085501;28;20510;-91
2022/11/30 11:10:52;;;;;;;65.65;39.92;;;8.20;93.60;;;;;;5065373;28;21163;-92
2022/11/30 11:13:42;;;;;;;82.60;45.20;;;8.20;92.90;;;;;;5083967;28;20501;-92
2022/11/30 11:16:11;;;;;;;62.30;39.10;;;8.40;93.20;;;;;;5059340;28;20410;-92
2022/11/30 11:18:54;;;;;;;81.03;43.28;;;8.20;92.70;;;;;;5067351;28;20494;-92
2022/11/30 11:21:21;;;;;;;76.50;44.17;;;8.30;93.20;;;;;;5090934;28;20404;-91
2022/11/30 11:23:50;;;;;;;66.07;40.23;;;8.50;93.30;;;;;;5089052;28;20397;-91
2022/11/30 11:26:24;;;;;;;65.90;40.57;;;8.30;92.90;;;;;;5087845;28;20426;-90
2022/11/30 11:28:52;;;;;;;66.75;41.65;;;8.30;92.80;;;;;;5089327;28;20423;-91
2022/11/30 11:31:32;;;;;;;76.20;45.10;;;8.40;92.50;;;;;;5106867;28;20400;-92
2022/11/30 11:33:58;;;;;;;72.85;42.97;;;8.40;92.90;;;;;;5092387;28;20465;-92
2022/11/30 11:36:27;;;;;;;77.77;44.70;;;8.20;92.80;;;;;;5092485;28;20392;-92
2022/11/30 11:38:53;;;;;;;69.28;42.88;;;8.30;93.10;;;;;;5092019;28;20473;-92
2022/11/30 11:41:34;;;;;;;74.40;44.45;;;8.30;93.00;;;;;;5093026;28;20494;-91
2022/11/30 11:44:03;;;;;;;83.22;48.10;;;8.30;92.80;;;;;;5091099;28;20499;-91
2022/11/30 11:46:35;;;;;;;65.80;42.00;;;8.20;92.90;;;;;;5092811;28;20406;-91
2022/11/30 11:49:04;;;;;;;73.50;46.33;;;8.30;93.20;;;;;;5088789;28;20409;-90
2022/11/30 11:51:38;;;;;;;59.60;39.72;;;8.40;93.10;;;;;;5091622;28;20397;-92
2022/11/30 11:54:26;;;;;;;72.13;46.33;;;8.20;92.30;;;;;;5092105;28;20409;-91
2022/11/30 11:56:55;;;;;;;65.90;42.83;;;8.10;92.80;;;;;;5090648;28;20428;-91
2022/11/30 11:59:52;;;;;;;65.68;42.10;;;8.10;92.70;;;;;;5092489;28;20407;-92
2022/11/30 12:02:26;;;;;;;67.10;43.03;;;8.10;93.00;;;;;;5090904;28;20400;-91
2022/11/30 12:05:09;;;;;;;75.43;45.70;;;8.10;92.70;;;;;;5091179;28;20413;-90
2022/11/30 12:08:01;;;;;;;78.30;45.77;;;8.00;93.20;;;;;;5092601;28;20496;-90
2022/11/30 12:10:57;;;;;;;70.93;44.38;;;8.10;93.30;;;;;;5059385;28;20555;-93
2022/11/30 12:13:45;;;;;;;65.85;43.60;;;8.10;93.30;;;;;;5076763;28;20446;-92
2022/11/30 12:16:13;;;;;;;71.70;45.38;;;8.10;92.90;;;;;;5091307;28;20475;-90
2022/11/30 12:18:46;;;;;;;84.68;54.38;;;8.20;93.10;;;;;;5088677;28;20432;-90
2022/11/30 12:21:14;;;;;;;70.28;45.50;;;8.20;93.20;;;;;;5091445;28;20404;-91
2022/11/30 12:24:11;;;;;;;65.25;44.05;;;8.30;92.90;;;;;;5089673;28;20432;-92
2022/11/30 12:26:46;;;;;;;78.05;48.75;;;8.10;92.60;;;;;;5089913;28;20901;-91
2022/11/30 12:29:21;;;;;;;84.45;50.25;;;8.40;92.90;;;;;;5092309;28;20857;-91
2022/11/30 12:31:59;;;;;;;71.70;47.00;;;8.20;93.10;;;;;;5089845;28;20412;-90
2022/11/30 12:34:48;;;;;;;91.50;52.70;;;8.30;92.70;;;;;;5091884;28;20401;-91
2022/11/30 12:37:40;;;;;;;82.22;50.15;;;8.30;92.80;;;;;;5091320;28;20515;-91
2022/11/30 12:40:24;;;;;;;70.93;46.47;;;8.40;93.00;;;;;;5089715;28;20451;-93
2022/11/30 12:43:20;;;;;;;70.13;46.50;;;8.40;92.20;;;;;;5091651;28;20417;-91
2022/11/30 12:45:47;;;;;;;70.57;47.17;;;8.40;92.40;;;;;;5091288;28;20495;-91